East Quogue, New York
Current Conditions -  °F | °C
As of 4:53 AM on Thursday 18 Dec 2014 (Local Time) from KFOK Reporting Station
Overcast Overcast  
Wind Chill: -1°   Ceiling: 9000
Heat Index:   Visibility: 10mi
Dew Point: -3°   Wind: 14mph
Humidity: 62%   Direction: 310°NW
Pressure: 29.86"   Gusts: 30mph
Location:  40.85°N, 72.58°W
Report Text: KFOK 180953Z AUTO 31012G26KT 10SM FEW065 OVC090 04/M03 A2986 RMK AO2 PK WND 30026/0946 SLP112 T00391028 TSNO
Loading
Personal Weather Stations






























Interactive Weather Map New forecast layout! Learn more

10-Day Weather Forecast

Advertisements
Track Severe Weather on mobile